Time;durP1;ratioP1;P1;durP2;ratioP2;P2;SDS_P1;SDS_P2;PMS_P1;PMS_P2;Temp;Humidity;BMP_temperature;BMP_pressure;BME280_temperature;BME280_humidity;BME280_pressure;Samples;Min_cycle;Max_cycle;Signal;HPM_P1;HPM_P2
2022/02/16 00:01:35;;;;;;;4.50;2.67;;;6.30;99.90;;;;;;5135314;27;20412;-82
2022/02/16 00:04:00;;;;;;;4.70;2.63;;;6.30;99.90;;;;;;5134181;27;20380;-83
2022/02/16 00:06:26;;;;;;;4.90;2.72;;;6.20;99.90;;;;;;5104166;28;20448;-81
2022/02/16 00:08:52;;;;;;;3.67;2.60;;;6.20;99.90;;;;;;5094175;28;20379;-81
2022/02/16 00:11:18;;;;;;;5.18;2.72;;;6.20;99.90;;;;;;5087826;28;20942;-82
2022/02/16 00:13:43;;;;;;;3.08;2.60;;;6.00;99.90;;;;;;5111269;28;20382;-81
2022/02/16 00:16:09;;;;;;;5.07;2.73;;;5.90;99.90;;;;;;5099383;28;20380;-81
2022/02/16 00:18:38;;;;;;;5.28;2.63;;;5.90;99.90;;;;;;5092847;28;20495;-82
2022/02/16 00:21:05;;;;;;;4.80;2.75;;;5.80;99.90;;;;;;5100075;28;20485;-81
2022/02/16 00:23:31;;;;;;;5.50;2.75;;;5.80;99.90;;;;;;5110809;27;20397;-82
2022/02/16 00:25:59;;;;;;;4.70;3.22;;;5.90;99.90;;;;;;5132318;27;20448;-82
2022/02/16 00:28:26;;;;;;;4.30;2.72;;;5.70;99.90;;;;;;5132061;27;20727;-82
2022/02/16 00:30:52;;;;;;;4.25;2.70;;;5.70;99.90;;;;;;5131908;27;20369;-82
2022/02/16 00:33:17;;;;;;;5.43;2.50;;;5.60;99.90;;;;;;5131521;27;20373;-82
2022/02/16 00:35:43;;;;;;;7.33;3.23;;;5.60;99.90;;;;;;5130794;27;20422;-82
2022/02/16 00:38:09;;;;;;;4.15;3.10;;;5.60;99.90;;;;;;5130850;27;20384;-82
2022/02/16 00:40:34;;;;;;;4.88;2.95;;;5.60;99.90;;;;;;5131365;27;20831;-83
2022/02/16 00:43:00;;;;;;;4.10;2.88;;;5.50;99.90;;;;;;5113169;27;20383;-82
2022/02/16 00:45:26;;;;;;;4.27;2.70;;;5.50;99.90;;;;;;5113564;27;20375;-82
2022/02/16 00:47:51;;;;;;;4.83;2.80;;;5.50;99.90;;;;;;5132048;27;20369;-81
2022/02/16 00:50:17;;;;;;;4.33;3.00;;;5.50;99.90;;;;;;5132992;27;20728;-81
2022/02/16 00:52:43;;;;;;;5.55;3.13;;;5.50;99.90;;;;;;5132010;27;20401;-82
2022/02/16 00:55:09;;;;;;;8.23;3.35;;;5.40;99.90;;;;;;5131678;27;20404;-82
2022/02/16 00:57:35;;;;;;;6.18;3.03;;;5.40;99.90;;;;;;5131690;27;20430;-82
2022/02/16 01:00:01;;;;;;;5.78;3.17;;;5.40;99.90;;;;;;5131788;27;20369;-82
2022/02/16 01:02:29;;;;;;;5.20;3.30;;;5.30;99.90;;;;;;5113244;27;20730;-83
2022/02/16 01:04:55;;;;;;;8.27;3.60;;;5.30;99.90;;;;;;5131217;27;20385;-82
2022/02/16 01:07:20;;;;;;;6.63;3.47;;;5.30;99.90;;;;;;5131325;27;20417;-81
2022/02/16 01:09:46;;;;;;;5.93;3.47;;;5.20;99.90;;;;;;5131202;27;20361;-82
2022/02/16 01:12:12;;;;;;;7.20;3.78;;;5.20;99.90;;;;;;5131357;27;20384;-82
2022/02/16 01:14:39;;;;;;;8.53;3.57;;;5.10;99.90;;;;;;5131026;27;20389;-82
2022/02/16 01:17:05;;;;;;;6.40;3.53;;;5.10;99.90;;;;;;5130912;27;20446;-82
2022/02/16 01:19:31;;;;;;;5.93;3.40;;;5.10;99.90;;;;;;5131361;27;20411;-83
2022/02/16 01:21:56;;;;;;;5.75;3.33;;;5.20;99.90;;;;;;5112371;27;20394;-81
2022/02/16 01:24:22;;;;;;;6.68;3.60;;;5.20;99.90;;;;;;5130947;27;20370;-82
2022/02/16 01:26:48;;;;;;;8.53;3.70;;;5.10;99.90;;;;;;5126852;27;20490;-82
2022/02/16 01:29:13;;;;;;;5.80;3.57;;;5.10;99.90;;;;;;5090141;28;20422;-82
2022/02/16 01:31:39;;;;;;;5.73;3.63;;;5.10;99.90;;;;;;5094885;28;20376;-81
2022/02/16 01:34:05;;;;;;;5.63;3.67;;;5.10;99.90;;;;;;5111723;27;20544;-82
2022/02/16 01:36:30;;;;;;;6.18;3.63;;;5.10;99.90;;;;;;5109196;27;20406;-82
2022/02/16 01:38:56;;;;;;;7.65;3.67;;;5.20;99.90;;;;;;5112470;27;20369;-81
2022/02/16 01:41:22;;;;;;;5.07;3.60;;;5.20;99.90;;;;;;5130722;27;20815;-81
2022/02/16 01:43:52;;;;;;;6.20;3.90;;;5.20;99.90;;;;;;5130358;27;20387;-82
2022/02/16 01:46:19;;;;;;;6.63;4.20;;;5.10;99.90;;;;;;5112106;27;20866;-82
2022/02/16 01:48:45;;;;;;;7.03;3.80;;;5.20;99.90;;;;;;5130714;27;20460;-82
2022/02/16 01:51:11;;;;;;;8.93;4.53;;;5.20;99.90;;;;;;5130076;27;20468;-82
2022/02/16 01:53:37;;;;;;;6.20;3.88;;;5.10;99.90;;;;;;5130393;27;20890;-81
2022/02/16 01:56:04;;;;;;;10.32;4.43;;;5.10;99.90;;;;;;5112111;27;20440;-82
2022/02/16 01:58:34;;;;;;;8.77;4.82;;;5.20;99.90;;;;;;5111960;27;20373;-82
2022/02/16 02:01:03;;;;;;;8.13;4.53;;;5.30;99.90;;;;;;5130363;27;20444;-81
2022/02/16 02:03:28;;;;;;;7.25;4.80;;;5.20;99.90;;;;;;5129384;27;20409;-81
2022/02/16 02:05:54;;;;;;;6.93;4.67;;;5.20;99.90;;;;;;5111807;27;20443;-81
2022/02/16 02:08:21;;;;;;;9.65;5.07;;;5.20;99.90;;;;;;5131452;27;20850;-83
2022/02/16 02:10:58;;;;;;;8.20;5.30;;;5.20;99.90;;;;;;5130753;27;20858;-82
2022/02/16 02:13:24;;;;;;;9.27;4.90;;;5.20;99.90;;;;;;5130294;27;20854;-82
2022/02/16 02:15:50;;;;;;;7.32;5.35;;;5.20;99.90;;;;;;5112011;27;20393;-82
2022/02/16 02:18:17;;;;;;;8.77;5.18;;;5.10;99.90;;;;;;5130622;27;20460;-82
2022/02/16 02:20:43;;;;;;;7.05;5.57;;;5.10;99.90;;;;;;5129496;27;20431;-82
2022/02/16 02:23:10;;;;;;;8.80;5.47;;;5.20;99.90;;;;;;5111917;27;20893;-82
2022/02/16 02:25:43;;;;;;;7.57;5.13;;;5.20;99.90;;;;;;5130270;27;20381;-82
2022/02/16 02:28:09;;;;;;;7.90;4.95;;;5.20;99.90;;;;;;5130136;27;20469;-82
2022/02/16 02:30:35;;;;;;;8.13;5.43;;;5.20;99.90;;;;;;5130346;27;20794;-82
2022/02/16 02:33:00;;;;;;;6.50;5.33;;;5.20;99.90;;;;;;5130207;27;20377;-82
2022/02/16 02:35:26;;;;;;;7.32;5.28;;;5.20;99.90;;;;;;5129792;27;20408;-81
2022/02/16 02:37:51;;;;;;;8.43;5.43;;;5.20;99.90;;;;;;5130248;28;20838;-83
2022/02/16 02:40:17;;;;;;;7.77;5.70;;;5.20;99.90;;;;;;5095950;27;20750;-82
2022/02/16 02:42:43;;;;;;;11.10;5.53;;;5.20;99.90;;;;;;5094787;28;20414;-81
2022/02/16 02:45:10;;;;;;;7.32;5.20;;;5.30;99.90;;;;;;5108495;28;20779;-82
2022/02/16 02:47:36;;;;;;;7.97;5.50;;;5.30;99.90;;;;;;5089146;28;20396;-82
2022/02/16 02:50:02;;;;;;;7.43;5.25;;;5.30;99.90;;;;;;5089299;28;20364;-81
2022/02/16 02:52:27;;;;;;;7.40;5.47;;;5.40;99.90;;;;;;5099770;28;20469;-82
2022/02/16 02:54:53;;;;;;;7.57;4.80;;;5.40;99.90;;;;;;5128444;28;20389;-81
2022/02/16 02:57:19;;;;;;;8.93;5.50;;;5.50;99.90;;;;;;5112104;28;20468;-81
2022/02/16 02:59:44;;;;;;;7.63;4.88;;;5.50;99.90;;;;;;5130086;28;20373;-82
2022/02/16 03:02:10;;;;;;;7.83;4.87;;;5.50;99.90;;;;;;5129729;28;20377;-82
2022/02/16 03:04:35;;;;;;;6.47;4.67;;;5.40;99.90;;;;;;5130525;28;20518;-82
2022/02/16 03:07:01;;;;;;;7.60;5.25;;;5.50;99.90;;;;;;5130063;28;20769;-82
2022/02/16 03:09:27;;;;;;;6.60;4.82;;;5.40;99.90;;;;;;5130127;28;20448;-82
2022/02/16 03:11:52;;;;;;;8.27;4.97;;;5.40;99.90;;;;;;5130455;28;20374;-82
2022/02/16 03:14:18;;;;;;;6.50;4.70;;;5.50;99.90;;;;;;5130590;27;20449;-82
2022/02/16 03:16:43;;;;;;;6.60;4.50;;;5.50;99.90;;;;;;5134524;27;20365;-82
2022/02/16 03:19:09;;;;;;;8.50;5.33;;;5.50;99.90;;;;;;5134864;27;20369;-81
2022/02/16 03:21:34;;;;;;;8.23;4.90;;;5.50;99.90;;;;;;5134085;27;20393;-82
2022/02/16 03:24:00;;;;;;;7.68;4.97;;;5.50;99.90;;;;;;5134119;27;20463;-80
2022/02/16 03:26:26;;;;;;;7.10;4.90;;;5.40;99.90;;;;;;5137023;27;20373;-83
2022/02/16 03:28:51;;;;;;;5.67;5.00;;;5.40;99.90;;;;;;5116827;27;20430;-82
2022/02/16 03:31:17;;;;;;;5.80;4.60;;;5.30;99.90;;;;;;5133522;27;20368;-82
2022/02/16 03:33:43;;;;;;;6.95;4.80;;;5.40;99.90;;;;;;5133986;27;20357;-83
2022/02/16 03:36:12;;;;;;;7.05;4.70;;;5.50;99.90;;;;;;5134527;27;20373;-82
2022/02/16 03:38:38;;;;;;;6.33;3.97;;;5.60;99.90;;;;;;5134201;27;20384;-81
2022/02/16 03:41:04;;;;;;;6.03;4.30;;;5.50;99.90;;;;;;5134878;27;20385;-82
2022/02/16 03:43:29;;;;;;;6.67;4.73;;;5.60;99.90;;;;;;5115660;27;20404;-82
2022/02/16 03:45:55;;;;;;;5.18;4.25;;;5.60;99.90;;;;;;5134428;27;20398;-82
2022/02/16 03:48:20;;;;;;;6.03;4.30;;;5.50;99.90;;;;;;5134168;27;20377;-81
2022/02/16 03:50:46;;;;;;;6.87;4.47;;;5.50;99.90;;;;;;5133711;27;20403;-83
2022/02/16 03:53:12;;;;;;;5.97;4.03;;;5.60;99.90;;;;;;5095207;27;20400;-82
2022/02/16 03:55:37;;;;;;;9.10;4.63;;;5.50;99.90;;;;;;5092738;28;20401;-82
2022/02/16 03:58:03;;;;;;;6.00;4.47;;;5.50;99.90;;;;;;5102272;28;20440;-82
2022/02/16 04:00:28;;;;;;;5.27;4.17;;;5.50;99.90;;;;;;5113315;28;20749;-83
2022/02/16 04:02:54;;;;;;;6.23;4.23;;;5.50;99.90;;;;;;5112522;28;20382;-81
2022/02/16 04:05:20;;;;;;;5.50;4.10;;;5.60;99.90;;;;;;5111367;28;20379;-82
2022/02/16 04:07:45;;;;;;;5.27;4.30;;;5.60;99.90;;;;;;5090069;28;20409;-82
2022/02/16 04:10:11;;;;;;;6.97;4.37;;;5.60;99.90;;;;;;5127754;27;20376;-82
2022/02/16 04:12:36;;;;;;;6.40;3.88;;;5.70;99.90;;;;;;5133828;27;20765;-83
2022/02/16 04:15:03;;;;;;;5.60;4.13;;;5.70;99.90;;;;;;5133651;27;20867;-83
2022/02/16 04:17:28;;;;;;;8.90;4.07;;;5.70;99.90;;;;;;5136325;27;20786;-82
2022/02/16 04:19:55;;;;;;;6.65;4.47;;;5.70;99.90;;;;;;5134336;27;20379;-82
2022/02/16 04:22:20;;;;;;;5.63;3.70;;;5.80;99.90;;;;;;5114962;27;20450;-83
2022/02/16 04:24:46;;;;;;;6.32;4.00;;;5.80;99.90;;;;;;5134163;27;20761;-82
2022/02/16 04:27:12;;;;;;;4.75;3.50;;;5.90;99.90;;;;;;5113799;27;20384;-83
2022/02/16 04:29:37;;;;;;;5.30;3.55;;;5.80;99.90;;;;;;5135529;27;20370;-82
2022/02/16 04:32:04;;;;;;;6.30;3.67;;;5.80;99.90;;;;;;5135337;27;20365;-81
2022/02/16 04:34:29;;;;;;;5.65;3.50;;;5.80;99.90;;;;;;5133759;27;20397;-82
2022/02/16 04:36:55;;;;;;;4.80;3.38;;;5.90;99.90;;;;;;5133538;27;21444;-83
2022/02/16 04:39:20;;;;;;;5.87;3.33;;;5.80;99.90;;;;;;5135002;27;20459;-82
2022/02/16 04:41:46;;;;;;;5.93;3.37;;;5.90;99.90;;;;;;5115001;27;20383;-82
2022/02/16 04:44:12;;;;;;;3.85;3.20;;;5.90;99.90;;;;;;5115615;27;20434;-82
2022/02/16 04:46:37;;;;;;;5.03;3.33;;;5.90;99.90;;;;;;5134850;27;20404;-82
2022/02/16 04:49:05;;;;;;;6.38;3.10;;;5.90;99.90;;;;;;5115715;27;21573;-82
2022/02/16 04:51:30;;;;;;;4.75;3.47;;;5.80;99.90;;;;;;5136103;27;20381;-81
2022/02/16 04:53:56;;;;;;;4.53;3.22;;;5.80;99.90;;;;;;5134951;27;20443;-82
2022/02/16 04:56:21;;;;;;;7.97;3.20;;;5.70;99.90;;;;;;5132876;27;20738;-82
2022/02/16 04:58:47;;;;;;;5.53;3.60;;;5.80;99.90;;;;;;5133127;27;20411;-83
2022/02/16 05:01:14;;;;;;;3.40;3.10;;;5.80;99.90;;;;;;5134623;27;20509;-82
2022/02/16 05:03:40;;;;;;;7.35;3.30;;;5.90;99.90;;;;;;5135634;27;20380;-83
2022/02/16 05:06:06;;;;;;;4.00;2.90;;;5.90;99.90;;;;;;5115510;27;20411;-82
2022/02/16 05:08:32;;;;;;;6.00;3.25;;;6.10;99.90;;;;;;5106195;27;20400;-82
2022/02/16 05:10:57;;;;;;;4.30;3.17;;;5.90;99.90;;;;;;5094400;28;20393;-84
2022/02/16 05:13:23;;;;;;;6.43;2.90;;;6.00;99.90;;;;;;5091485;28;20474;-82
2022/02/16 05:15:48;;;;;;;3.80;2.97;;;6.00;99.90;;;;;;5114857;28;20488;-82
2022/02/16 05:18:14;;;;;;;5.25;3.00;;;6.00;99.90;;;;;;5112951;28;20852;-80
2022/02/16 05:20:40;;;;;;;3.77;2.93;;;6.10;99.90;;;;;;5103600;28;20380;-83
2022/02/16 05:23:05;;;;;;;5.50;2.93;;;6.00;99.90;;;;;;5093452;28;20436;-82
2022/02/16 05:25:31;;;;;;;5.45;3.00;;;6.00;99.90;;;;;;5108703;28;20803;-83
2022/02/16 05:27:57;;;;;;;5.00;3.05;;;6.00;99.90;;;;;;5110371;28;20387;-82
2022/02/16 05:30:22;;;;;;;4.68;2.92;;;6.00;99.90;;;;;;5075307;28;20435;-82
2022/02/16 05:32:48;;;;;;;5.67;2.90;;;6.20;99.90;;;;;;5078460;28;20452;-82
2022/02/16 05:35:13;;;;;;;5.53;3.30;;;6.10;99.90;;;;;;5124520;27;20446;-82
2022/02/16 05:37:40;;;;;;;3.58;2.70;;;6.00;99.90;;;;;;5133441;27;20503;-83
2022/02/16 05:40:06;;;;;;;5.45;2.97;;;6.10;99.90;;;;;;5115797;27;20462;-82
2022/02/16 05:42:36;;;;;;;4.05;2.85;;;6.10;99.90;;;;;;5132619;27;20790;-82
2022/02/16 05:45:02;;;;;;;4.50;2.80;;;6.20;99.90;;;;;;5133406;27;20380;-82
2022/02/16 05:47:28;;;;;;;4.60;3.20;;;6.10;99.90;;;;;;5131470;27;20370;-83
2022/02/16 05:49:53;;;;;;;3.95;2.90;;;6.10;99.90;;;;;;5131197;27;20373;-82
2022/02/16 05:52:19;;;;;;;3.90;3.17;;;6.00;99.90;;;;;;5131205;27;20372;-82
2022/02/16 05:54:45;;;;;;;4.33;3.53;;;6.00;99.90;;;;;;5131785;27;20427;-82
2022/02/16 05:57:11;;;;;;;5.60;3.20;;;6.10;99.90;;;;;;5095335;28;20398;-82
2022/02/16 05:59:39;;;;;;;4.50;3.33;;;6.10;99.90;;;;;;5095371;28;20464;-82
2022/02/16 06:02:05;;;;;;;3.42;3.13;;;6.00;99.90;;;;;;5128808;27;20843;-81
2022/02/16 06:04:34;;;;;;;4.00;3.15;;;6.00;99.90;;;;;;5134502;27;20380;-82
2022/02/16 06:07:00;;;;;;;5.10;3.22;;;5.90;99.90;;;;;;5132075;27;20382;-82
2022/02/16 06:09:26;;;;;;;7.15;3.60;;;5.90;99.90;;;;;;5124663;27;21196;-82
2022/02/16 06:11:52;;;;;;;4.97;3.50;;;5.90;99.90;;;;;;5072538;28;20408;-83
2022/02/16 06:14:18;;;;;;;4.27;3.53;;;5.90;99.90;;;;;;5072577;28;20627;-82
2022/02/16 06:16:43;;;;;;;4.57;3.50;;;5.80;99.90;;;;;;5091069;28;20891;-81
2022/02/16 06:19:09;;;;;;;3.92;3.47;;;5.80;99.90;;;;;;5114364;27;20372;-81
2022/02/16 06:21:35;;;;;;;4.07;3.50;;;5.80;99.90;;;;;;5130731;27;20379;-81
2022/02/16 06:24:01;;;;;;;4.75;4.00;;;5.80;99.90;;;;;;5118196;27;20390;-82
2022/02/16 06:26:26;;;;;;;4.82;3.95;;;5.90;99.90;;;;;;5111103;28;20374;-82
2022/02/16 06:28:52;;;;;;;4.93;4.27;;;5.80;99.90;;;;;;5093108;28;20413;-81
2022/02/16 06:31:18;;;;;;;5.37;4.20;;;5.80;99.90;;;;;;5109886;28;20374;-81
2022/02/16 06:33:44;;;;;;;6.47;4.40;;;5.80;99.90;;;;;;5082367;28;20893;-80
2022/02/16 06:36:09;;;;;;;7.27;4.50;;;5.80;99.90;;;;;;5090148;28;20483;-80
2022/02/16 06:38:35;;;;;;;5.93;4.50;;;5.70;99.90;;;;;;5071174;28;20412;-81
2022/02/16 06:41:01;;;;;;;5.50;4.70;;;5.80;99.90;;;;;;5090364;28;20392;-81
2022/02/16 06:43:26;;;;;;;6.30;4.43;;;5.90;99.90;;;;;;5090012;28;20415;-80
2022/02/16 06:45:52;;;;;;;5.93;4.83;;;5.80;99.90;;;;;;5090634;28;20850;-81
2022/02/16 06:48:18;;;;;;;6.10;4.53;;;5.80;99.90;;;;;;5090777;28;20510;-80
2022/02/16 06:50:45;;;;;;;5.50;4.75;;;5.80;99.90;;;;;;5076342;28;20364;-80
2022/02/16 06:53:10;;;;;;;7.70;5.10;;;5.70;99.90;;;;;;5076807;28;20391;-80
2022/02/16 06:55:36;;;;;;;6.72;4.88;;;5.80;99.90;;;;;;5093309;28;20392;-80
2022/02/16 06:58:02;;;;;;;8.73;5.03;;;5.80;99.90;;;;;;5094114;28;20378;-82
2022/02/16 07:00:27;;;;;;;7.93;5.20;;;5.70;99.90;;;;;;5093136;28;20784;-81
2022/02/16 07:02:53;;;;;;;6.00;5.30;;;5.70;99.90;;;;;;5075513;28;20459;-81
2022/02/16 07:05:18;;;;;;;7.03;5.05;;;5.70;99.90;;;;;;5075757;28;20383;-81
2022/02/16 07:07:44;;;;;;;7.40;5.17;;;5.70;99.90;;;;;;5093260;28;20398;-81
2022/02/16 07:10:10;;;;;;;5.90;4.97;;;5.80;99.90;;;;;;5094070;28;20420;-82
2022/02/16 07:12:37;;;;;;;6.80;4.87;;;5.70;99.90;;;;;;5076025;28;20448;-81
2022/02/16 07:15:03;;;;;;;6.65;4.80;;;5.80;99.90;;;;;;5093503;28;20440;-81
2022/02/16 07:17:28;;;;;;;5.55;4.82;;;5.80;99.90;;;;;;5110998;28;20444;-80
2022/02/16 07:19:54;;;;;;;5.70;4.85;;;5.90;99.90;;;;;;5110272;27;20380;-81
2022/02/16 07:22:20;;;;;;;6.70;5.40;;;5.90;99.90;;;;;;5116700;27;20479;-81
2022/02/16 07:24:46;;;;;;;7.18;5.13;;;5.70;99.90;;;;;;5133929;27;20380;-81
2022/02/16 07:27:12;;;;;;;5.27;4.70;;;5.80;99.90;;;;;;5133443;27;20446;-80
2022/02/16 07:29:38;;;;;;;6.20;4.63;;;5.90;99.90;;;;;;5101014;28;20819;-81
2022/02/16 07:32:04;;;;;;;7.93;4.63;;;5.70;99.90;;;;;;5093590;28;20376;-81
2022/02/16 07:34:31;;;;;;;5.47;4.28;;;5.80;99.90;;;;;;5094048;28;20392;-81
2022/02/16 07:37:00;;;;;;;5.53;4.30;;;5.80;99.90;;;;;;5093381;28;20858;-80
2022/02/16 07:39:27;;;;;;;5.25;4.13;;;5.80;99.90;;;;;;5097756;28;20405;-81
2022/02/16 07:41:54;;;;;;;4.97;4.20;;;5.90;99.90;;;;;;5114510;28;20393;-79
2022/02/16 07:44:20;;;;;;;4.55;4.13;;;5.90;99.90;;;;;;5095458;28;20383;-80
2022/02/16 07:46:45;;;;;;;4.47;3.90;;;6.00;99.90;;;;;;5114008;28;20378;-80
2022/02/16 07:49:11;;;;;;;5.17;3.80;;;6.00;99.90;;;;;;5109992;28;20388;-80
2022/02/16 07:51:37;;;;;;;4.30;3.90;;;6.00;99.90;;;;;;5075211;28;20846;-81
2022/02/16 07:54:02;;;;;;;4.10;3.70;;;6.00;99.90;;;;;;5092670;28;20514;-81
2022/02/16 07:56:29;;;;;;;4.85;3.88;;;6.00;99.90;;;;;;5094384;28;20541;-81
2022/02/16 07:58:55;;;;;;;3.70;3.40;;;5.90;99.90;;;;;;5092056;28;20479;-80
2022/02/16 08:01:20;;;;;;;4.18;3.78;;;6.00;99.90;;;;;;5092924;28;20514;-82
2022/02/16 08:03:46;;;;;;;4.50;3.60;;;5.90;99.90;;;;;;5106540;28;20716;-81
2022/02/16 08:06:14;;;;;;;4.60;3.37;;;6.00;99.90;;;;;;5111840;28;20392;-81
2022/02/16 08:08:40;;;;;;;5.05;3.55;;;6.00;99.90;;;;;;5094815;28;20566;-81
2022/02/16 08:11:05;;;;;;;4.47;3.38;;;6.10;99.90;;;;;;5113124;28;20458;-81
2022/02/16 08:13:31;;;;;;;3.30;2.97;;;6.20;99.90;;;;;;5113716;28;20888;-81
2022/02/16 08:15:56;;;;;;;4.37;3.13;;;6.30;99.90;;;;;;5091174;28;20390;-81
2022/02/16 08:18:24;;;;;;;3.93;2.87;;;6.40;99.90;;;;;;5096636;28;20786;-81
2022/02/16 08:20:49;;;;;;;2.80;2.50;;;6.40;99.90;;;;;;5102430;27;20417;-80
2022/02/16 08:23:15;;;;;;;3.57;2.40;;;6.60;99.90;;;;;;5108589;28;20835;-81
2022/02/16 08:25:41;;;;;;;2.53;2.33;;;6.50;99.90;;;;;;5112532;28;20402;-82
2022/02/16 08:28:07;;;;;;;2.60;2.40;;;6.50;99.90;;;;;;5111616;28;20363;-81
2022/02/16 08:30:33;;;;;;;3.53;2.33;;;6.50;99.90;;;;;;5111519;28;20418;-81
2022/02/16 08:32:59;;;;;;;2.77;2.20;;;6.50;99.90;;;;;;5112396;28;20371;-81
2022/02/16 08:35:26;;;;;;;3.13;2.30;;;6.50;99.90;;;;;;5091408;28;20460;-81
2022/02/16 08:37:52;;;;;;;2.78;2.17;;;6.50;99.90;;;;;;5112865;28;20379;-81
2022/02/16 08:40:18;;;;;;;2.65;2.28;;;6.50;99.90;;;;;;5112480;28;20401;-81
2022/02/16 08:42:43;;;;;;;2.50;2.30;;;6.50;99.90;;;;;;5111222;28;20375;-80
2022/02/16 08:45:10;;;;;;;2.57;1.80;;;6.50;99.90;;;;;;5098666;28;20396;-81
2022/02/16 08:47:36;;;;;;;2.83;2.15;;;6.50;99.90;;;;;;5100533;28;20392;-81
2022/02/16 08:50:02;;;;;;;2.20;1.90;;;6.50;99.90;;;;;;5089520;28;20455;-80
2022/02/16 08:52:28;;;;;;;2.08;1.77;;;6.50;99.90;;;;;;5071466;28;20384;-81
2022/02/16 08:54:53;;;;;;;2.00;1.70;;;6.40;99.90;;;;;;5071130;28;20400;-82
2022/02/16 08:57:21;;;;;;;3.25;1.83;;;6.50;99.90;;;;;;5091916;28;20381;-81
2022/02/16 08:59:47;;;;;;;2.00;1.77;;;6.50;99.90;;;;;;5073362;28;20384;-81
2022/02/16 09:02:13;;;;;;;2.65;1.98;;;6.60;99.90;;;;;;5091756;28;20379;-81
2022/02/16 09:04:39;;;;;;;2.50;2.00;;;6.60;99.90;;;;;;5092295;28;20348;-81
2022/02/16 09:09:48;;;;;;;1.90;1.80;;;6.50;99.90;;;;;;5090463;28;20908;-80
2022/02/16 09:12:14;;;;;;;2.53;1.97;;;6.60;99.90;;;;;;5072523;28;20381;-82
2022/02/16 09:14:40;;;;;;;1.83;1.60;;;6.60;99.90;;;;;;5091140;28;20397;-81
2022/02/16 09:17:06;;;;;;;1.60;1.50;;;6.70;99.90;;;;;;5095029;28;20393;-81
2022/02/16 09:19:33;;;;;;;2.10;1.63;;;6.70;99.90;;;;;;5092708;28;20395;-81
2022/02/16 09:21:59;;;;;;;1.67;1.50;;;6.70;99.90;;;;;;5112555;28;20371;-82
2022/02/16 09:24:24;;;;;;;1.80;1.30;;;6.80;99.90;;;;;;5103909;28;20920;-81
2022/02/16 09:26:52;;;;;;;2.00;1.50;;;6.70;99.90;;;;;;5090440;28;20384;-81
2022/02/16 09:29:19;;;;;;;1.40;1.25;;;6.70;99.90;;;;;;5090679;28;20381;-80
2022/02/16 09:31:45;;;;;;;1.60;1.33;;;6.90;99.90;;;;;;5089613;28;20373;-81
2022/02/16 09:34:10;;;;;;;1.80;1.23;;;6.90;99.90;;;;;;5094464;28;20918;-80
2022/02/16 09:36:36;;;;;;;1.50;1.40;;;6.80;99.90;;;;;;5107018;28;20870;-82
2022/02/16 09:39:03;;;;;;;1.67;1.52;;;7.00;99.90;;;;;;5103617;27;20361;-81
2022/02/16 09:41:29;;;;;;;1.60;1.40;;;6.80;99.90;;;;;;5131011;27;20381;-80
2022/02/16 09:43:59;;;;;;;3.63;1.50;;;6.80;99.90;;;;;;5111942;27;20381;-81
2022/02/16 09:46:26;;;;;;;3.17;1.42;;;6.80;99.90;;;;;;5130604;27;20373;-81
2022/02/16 09:48:51;;;;;;;2.10;1.70;;;7.00;99.90;;;;;;5130695;27;20372;-81
2022/02/16 09:51:18;;;;;;;1.40;1.30;;;6.80;99.90;;;;;;5093446;28;20772;-81
2022/02/16 09:53:44;;;;;;;1.75;1.30;;;6.80;99.90;;;;;;5106525;28;20443;-81
2022/02/16 09:56:10;;;;;;;2.00;1.40;;;6.90;99.90;;;;;;5109581;28;20480;-81
2022/02/16 09:58:36;;;;;;;2.85;1.50;;;6.80;99.90;;;;;;5110122;28;20367;-81
2022/02/16 10:01:12;;;;;;;2.07;1.47;;;6.70;99.90;;;;;;5096703;28;20388;-81
2022/02/16 10:03:39;;;;;;;1.73;1.30;;;6.70;99.90;;;;;;5081514;28;20441;-81
2022/02/16 10:06:06;;;;;;;1.80;1.52;;;6.70;99.90;;;;;;5096628;27;20417;-83
2022/02/16 10:08:44;;;;;;;2.13;1.58;;;6.70;99.90;;;;;;5085454;28;20390;-82
2022/02/16 10:11:12;;;;;;;2.63;1.40;;;6.70;99.90;;;;;;5082525;27;20384;-82
2022/02/16 10:13:38;;;;;;;2.33;1.60;;;6.70;99.90;;;;;;5126323;27;20365;-82
2022/02/16 10:16:04;;;;;;;2.72;1.50;;;6.80;99.90;;;;;;5113376;27;20594;-83
2022/02/16 10:18:30;;;;;;;1.83;1.40;;;6.70;99.90;;;;;;5130421;27;20373;-82
2022/02/16 10:21:09;;;;;;;1.60;1.23;;;6.70;99.90;;;;;;5099481;27;20534;-82
2022/02/16 10:23:45;;;;;;;1.73;1.45;;;6.70;99.90;;;;;;5088554;28;20397;-82
2022/02/16 10:26:11;;;;;;;2.67;1.52;;;6.70;99.90;;;;;;5093680;27;20422;-83
2022/02/16 10:28:42;;;;;;;3.00;1.77;;;6.70;99.90;;;;;;5095843;28;20385;-83
2022/02/16 10:31:09;;;;;;;2.50;1.58;;;6.60;99.90;;;;;;5112689;27;20429;-83
2022/02/16 10:33:40;;;;;;;2.13;1.48;;;6.70;99.90;;;;;;5113156;27;20382;-82
2022/02/16 10:36:19;;;;;;;3.03;1.90;;;6.70;99.90;;;;;;5100058;28;20410;-82
2022/02/16 10:39:10;;;;;;;2.03;1.52;;;6.70;99.90;;;;;;5089030;28;20416;-83
2022/02/16 10:41:43;;;;;;;2.67;1.88;;;6.80;99.90;;;;;;5071785;28;20439;-82
2022/02/16 10:44:31;;;;;;;3.13;1.77;;;6.80;99.90;;;;;;5089347;28;20892;-82
2022/02/16 10:47:06;;;;;;;1.90;1.63;;;6.80;99.90;;;;;;5088536;28;21333;-83
2022/02/16 10:49:36;;;;;;;1.67;1.58;;;7.00;99.90;;;;;;5070620;28;20392;-81
2022/02/16 10:52:05;;;;;;;1.70;1.60;;;7.10;99.90;;;;;;5089596;28;20388;-83
2022/02/16 10:54:31;;;;;;;2.05;1.73;;;7.10;99.90;;;;;;5089745;28;20459;-82
2022/02/16 10:56:57;;;;;;;3.00;2.27;;;7.10;99.90;;;;;;5089638;28;20396;-83
2022/02/16 10:59:22;;;;;;;4.60;2.70;;;6.90;99.90;;;;;;5070633;28;20440;-83
2022/02/16 11:01:48;;;;;;;2.05;1.70;;;7.00;99.90;;;;;;5126191;28;20391;-83
2022/02/16 11:04:15;;;;;;;2.00;1.80;;;7.10;99.90;;;;;;5108327;28;20884;-83
2022/02/16 11:06:48;;;;;;;1.77;1.58;;;7.20;99.90;;;;;;5105988;28;20504;-83
2022/02/16 11:09:25;;;;;;;2.25;1.80;;;7.30;99.90;;;;;;5103607;28;20389;-83
2022/02/16 11:11:53;;;;;;;2.33;1.50;;;7.30;99.90;;;;;;5109550;28;20384;-83
2022/02/16 11:14:25;;;;;;;4.37;2.07;;;7.40;99.90;;;;;;5089191;28;20889;-82
2022/02/16 11:16:51;;;;;;;1.95;1.75;;;7.50;99.90;;;;;;5070803;28;20388;-82
2022/02/16 11:19:32;;;;;;;2.50;1.52;;;7.50;99.90;;;;;;5088568;28;20873;-83
2022/02/16 11:22:21;;;;;;;2.08;1.40;;;7.50;99.90;;;;;;5084492;28;20892;-82
2022/02/16 11:24:53;;;;;;;2.55;1.60;;;7.50;99.90;;;;;;5090812;28;20744;-83
2022/02/16 11:27:38;;;;;;;2.13;1.80;;;7.50;99.90;;;;;;5083029;28;20890;-83
2022/02/16 11:30:29;;;;;;;2.37;1.80;;;7.40;99.90;;;;;;5070529;28;20446;-82
2022/02/16 11:33:13;;;;;;;2.85;1.55;;;7.30;99.90;;;;;;5089804;28;20479;-83
2022/02/16 11:35:49;;;;;;;2.08;1.70;;;7.30;99.90;;;;;;5095367;28;20410;-82
2022/02/16 11:38:17;;;;;;;1.98;1.80;;;7.20;99.90;;;;;;5112716;28;20374;-82
2022/02/16 11:40:44;;;;;;;2.42;1.90;;;7.10;99.90;;;;;;5112653;28;20386;-84
2022/02/16 11:43:12;;;;;;;3.35;1.80;;;7.20;99.90;;;;;;5112576;28;20374;-83
2022/02/16 11:45:54;;;;;;;2.45;1.80;;;7.20;99.90;;;;;;5107524;28;20380;-83
2022/02/16 11:48:40;;;;;;;2.50;1.90;;;7.10;99.90;;;;;;5092147;28;21454;-82
2022/02/16 11:51:42;;;;;;;2.08;1.88;;;7.20;99.90;;;;;;5080189;28;20441;-82
2022/02/16 11:54:44;;;;;;;2.30;2.00;;;7.10;99.90;;;;;;5029726;28;20378;-82
2022/02/16 11:57:32;;;;;;;2.50;2.17;;;7.20;99.90;;;;;;5102358;28;20399;-83
2022/02/16 12:00:20;;;;;;;2.22;2.03;;;7.20;99.90;;;;;;5122856;27;20854;-82
2022/02/16 12:05:57;;;;;;;2.20;2.00;;;7.20;99.90;;;;;;5132989;27;20456;-83
2022/02/16 12:08:37;;;;;;;2.30;2.10;;;7.20;99.90;;;;;;5113687;27;20459;-83
2022/02/16 12:11:22;;;;;;;2.55;2.35;;;7.20;99.90;;;;;;5132505;27;20385;-82
2022/02/16 12:14:14;;;;;;;2.20;2.00;;;7.30;99.90;;;;;;5131876;27;20369;-83
2022/02/16 12:16:42;;;;;;;2.25;2.03;;;7.30;99.90;;;;;;5132279;27;20397;-82
2022/02/16 12:19:15;;;;;;;1.92;1.80;;;7.40;99.90;;;;;;5107533;28;20381;-83
2022/02/16 12:21:50;;;;;;;2.00;1.90;;;7.40;99.90;;;;;;5073366;28;20415;-83
2022/02/16 12:24:19;;;;;;;2.40;2.00;;;7.40;99.90;;;;;;5073456;28;20372;-82
2022/02/16 12:26:50;;;;;;;2.47;1.70;;;7.60;99.90;;;;;;5072786;28;20882;-83
2022/02/16 12:29:22;;;;;;;2.10;1.90;;;7.70;99.90;;;;;;5075910;28;20453;-82
2022/02/16 12:31:49;;;;;;;1.88;1.70;;;7.70;99.90;;;;;;5070554;28;20380;-82
2022/02/16 12:34:21;;;;;;;3.15;2.05;;;7.90;99.90;;;;;;5072867;28;20428;-83
2022/02/16 12:36:54;;;;;;;1.75;1.60;;;8.00;99.90;;;;;;5091280;28;20376;-83
2022/02/16 12:39:21;;;;;;;1.73;1.53;;;7.90;99.90;;;;;;5073581;28;20453;-83
2022/02/16 12:41:49;;;;;;;1.63;1.52;;;7.90;99.90;;;;;;5091364;28;20441;-83
2022/02/16 12:44:28;;;;;;;2.20;1.67;;;8.10;99.90;;;;;;5073160;28;20434;-84
2022/02/16 12:46:54;;;;;;;1.67;1.58;;;8.10;99.90;;;;;;5072221;28;20420;-83
2022/02/16 12:49:26;;;;;;;1.80;1.57;;;8.20;99.90;;;;;;5099685;28;20423;-83
2022/02/16 12:51:54;;;;;;;1.70;1.55;;;8.20;99.90;;;;;;5122470;27;20927;-84
2022/02/16 12:54:23;;;;;;;1.38;1.27;;;8.30;99.90;;;;;;5091588;28;20395;-84
2022/02/16 12:56:52;;;;;;;1.77;1.67;;;8.30;99.90;;;;;;5097762;28;20490;-84
2022/02/16 12:59:23;;;;;;;1.70;1.30;;;8.40;99.90;;;;;;5127986;27;20353;-83
2022/02/16 13:01:51;;;;;;;1.73;1.40;;;8.40;99.90;;;;;;5136908;27;20369;-83
2022/02/16 13:04:17;;;;;;;2.17;1.07;;;8.40;99.90;;;;;;5101487;27;20574;-83
2022/02/16 13:06:45;;;;;;;1.53;1.17;;;8.50;99.90;;;;;;5073216;28;20799;-83